createdAt,value
2023-05-04T00:02:00.739Z,101982.22
2023-05-04T00:04:27.630Z,101987.00
2023-05-04T00:06:54.848Z,101987.81
2023-05-04T00:09:21.220Z,101984.94
2023-05-04T00:11:47.905Z,101985.97
2023-05-04T00:14:15.793Z,101975.41
2023-05-04T00:16:42.675Z,101981.63
2023-05-04T00:19:09.363Z,101982.63
2023-05-04T00:21:35.766Z,101988.84
2023-05-04T00:24:02.436Z,101988.00
2023-05-04T00:26:29.150Z,101985.31
2023-05-04T00:28:57.408Z,101974.56
2023-05-04T00:31:24.255Z,101970.00
2023-05-04T00:33:51.342Z,101970.00
2023-05-04T00:36:17.852Z,101971.06
2023-05-04T00:38:44.393Z,101965.03
2023-05-04T00:41:10.909Z,101968.56
2023-05-04T00:43:37.332Z,101964.22
2023-05-04T00:46:03.722Z,101956.13
2023-05-04T00:48:32.285Z,101953.44
2023-05-04T00:50:58.754Z,101951.75
2023-05-04T00:53:25.175Z,101950.94
2023-05-04T00:55:51.632Z,101954.69
2023-05-04T00:58:18.307Z,101964.63
2023-05-04T01:00:44.746Z,101956.34
2023-05-04T01:03:14.010Z,101957.38
2023-05-04T01:05:40.529Z,101960.88
2023-05-04T01:08:06.958Z,101964.63
2023-05-04T01:10:33.383Z,101961.91
2023-05-04T01:12:59.896Z,101968.34
2023-05-04T01:15:26.644Z,101968.34
2023-05-04T01:17:53.217Z,101980.97
2023-05-04T01:20:19.675Z,101965.84
2023-05-04T01:22:46.551Z,101972.03
2023-05-04T01:25:13.160Z,101982.00
2023-05-04T01:27:39.943Z,101979.31
2023-05-04T01:30:06.665Z,101968.75
2023-05-04T01:32:33.361Z,101973.09
2023-05-04T01:34:59.768Z,101972.47
2023-05-04T01:37:26.282Z,101967.91
2023-05-04T01:39:52.691Z,101972.47
2023-05-04T01:42:19.359Z,101966.88
2023-05-04T01:44:45.934Z,101967.50
2023-05-04T01:47:12.298Z,101967.69
2023-05-04T01:49:38.651Z,101972.25
2023-05-04T01:52:05.078Z,101968.31
2023-05-04T01:54:31.485Z,101979.91
2023-05-04T01:56:57.891Z,101977.22
2023-05-04T01:59:24.328Z,101964.59
2023-05-04T02:01:51.000Z,101966.44
2023-05-04T02:04:17.446Z,101966.44
2023-05-04T02:06:44.059Z,101964.19
2023-05-04T02:09:10.460Z,101961.69
2023-05-04T02:11:37.015Z,101959.38
2023-05-04T02:14:03.552Z,101960.44
2023-05-04T02:16:29.991Z,101962.31
2023-05-04T02:18:56.470Z,101962.69
2023-05-04T02:21:23.057Z,101966.66
2023-05-04T02:23:49.380Z,101970.56
2023-05-04T02:26:16.051Z,101970.19
2023-05-04T02:28:42.571Z,101963.34
2023-05-04T02:31:09.009Z,101964.19
2023-05-04T02:33:35.429Z,101959.00
2023-05-04T02:36:01.873Z,101970.78
2023-05-04T02:38:28.358Z,101957.97
2023-05-04T02:40:54.990Z,101961.69
2023-05-04T02:43:21.523Z,101960.84
2023-05-04T02:45:47.971Z,101968.31
2023-05-04T02:48:14.939Z,101958.56
2023-05-04T02:50:41.453Z,101959.19
2023-05-04T02:53:08.082Z,101968.91
2023-05-04T02:55:34.752Z,101958.56
2023-05-04T02:58:01.187Z,101958.56
2023-05-04T03:00:27.508Z,101954.84
2023-05-04T03:02:53.934Z,101956.69
2023-05-04T03:05:20.333Z,101951.72
2023-05-04T03:07:46.672Z,101951.72
2023-05-04T03:10:15.095Z,101961.03
2023-05-04T03:12:41.532Z,101952.56
2023-05-04T03:15:08.142Z,101958.34
2023-05-04T03:17:34.573Z,101962.69
2023-05-04T03:20:03.939Z,101952.56
2023-05-04T03:22:30.676Z,101959.19
2023-05-04T03:24:57.113Z,101957.28
2023-05-04T03:27:23.760Z,101954.38
2023-05-04T03:29:50.146Z,101956.69
2023-05-04T03:32:16.850Z,101955.44
2023-05-04T03:34:43.260Z,101957.53
2023-05-04T03:37:09.724Z,101951.69
2023-05-04T03:39:36.204Z,101950.66
2023-05-04T03:42:02.803Z,101958.13
2023-05-04T03:44:29.269Z,101952.72
2023-05-04T03:46:56.108Z,101951.69
2023-05-04T03:49:22.560Z,101952.72
2023-05-04T03:51:48.960Z,101958.72
2023-05-04T03:54:15.351Z,101952.72
2023-05-04T03:56:41.709Z,101956.66
2023-05-04T03:59:08.307Z,101954.59
2023-05-04T04:01:34.701Z,101959.16
2023-05-04T04:04:01.347Z,101958.50
2023-05-04T04:06:27.793Z,101966.16
2023-05-04T04:08:54.590Z,101960.78
2023-05-04T04:11:24.155Z,101965.78
2023-05-04T04:13:50.485Z,101960.59
2023-05-04T04:16:16.969Z,101956.25
2023-05-04T04:18:43.703Z,101956.25
2023-05-04T04:21:10.073Z,101953.56
2023-05-04T04:23:36.958Z,101959.94
2023-05-04T04:26:04.656Z,101961.81
2023-05-04T04:28:31.226Z,101969.69
2023-05-04T04:30:57.694Z,101964.31
2023-05-04T04:33:24.101Z,101963.28
2023-05-04T04:35:50.623Z,101963.66
2023-05-04T04:38:17.124Z,101963.47
2023-05-04T04:40:43.434Z,101959.94
2023-05-04T04:43:09.837Z,101956.63
2023-05-04T04:45:36.222Z,101955.41
2023-05-04T04:48:02.659Z,101965.75
2023-05-04T04:50:29.232Z,101955.38
2023-05-04T04:52:55.628Z,101971.56
2023-05-04T04:55:22.320Z,101959.13
2023-05-04T04:57:48.873Z,101952.91
2023-05-04T05:00:15.323Z,101951.25
2023-05-04T05:02:41.812Z,101957.03
2023-05-04T05:05:08.352Z,101951.66
2023-05-04T05:07:34.800Z,101953.31
2023-05-04T05:10:01.294Z,101947.13
2023-05-04T05:12:28.457Z,101944.63
2023-05-04T05:14:55.063Z,101954.16
2023-05-04T05:17:21.430Z,101950.41
2023-05-04T05:19:47.806Z,101955.00
2023-05-04T05:22:14.276Z,101948.34
2023-05-04T05:24:40.610Z,101942.34
2023-05-04T05:27:07.181Z,101947.72
2023-05-04T05:29:33.558Z,101947.91
2023-05-04T05:32:00.003Z,101945.22
2023-05-04T05:34:26.370Z,101945.47
2023-05-04T05:36:52.849Z,101947.91
2023-05-04T05:39:19.220Z,101952.50
2023-05-04T05:41:46.598Z,101951.19
2023-05-04T05:44:13.236Z,101959.06
2023-05-04T05:46:40.000Z,101954.91
2023-05-04T05:49:07.310Z,101952.00
2023-05-04T05:51:33.980Z,101957.16
2023-05-04T05:54:00.815Z,101950.97
2023-05-04T05:56:27.374Z,101948.91
2023-05-04T05:58:53.734Z,101956.97
2023-05-04T06:01:20.347Z,101960.13
2023-05-04T06:03:46.989Z,101953.53
2023-05-04T06:06:13.689Z,101963.25
2023-05-04T06:08:40.091Z,101958.69
2023-05-04T06:11:06.567Z,101959.53
2023-05-04T06:13:33.072Z,101958.50
2023-05-04T06:15:59.838Z,101957.69
2023-05-04T06:18:26.600Z,101954.16
2023-05-04T06:20:52.969Z,101947.91
2023-05-04T06:23:19.298Z,101947.72
2023-05-04T06:25:45.649Z,101945.88
2023-05-04T06:28:12.112Z,101931.78
2023-05-04T06:30:38.595Z,101937.16
2023-05-04T06:33:05.163Z,101944.03
2023-05-04T06:35:31.766Z,101943.19
2023-05-04T06:37:58.748Z,101941.34
2023-05-04T06:40:25.127Z,101942.34
2023-05-04T06:42:51.823Z,101943.19
2023-05-04T06:45:18.481Z,101944.03
2023-05-04T06:47:44.847Z,101943.19
2023-05-04T06:50:11.514Z,101943.19
2023-05-04T06:52:37.909Z,101947.53
2023-05-04T06:55:04.361Z,101945.03
2023-05-04T06:57:30.777Z,101944.63
2023-05-04T06:59:58.546Z,101952.50
2023-05-04T07:02:25.147Z,101946.38
2023-05-04T07:04:51.891Z,101943.00
2023-05-04T07:07:18.244Z,101935.50
2023-05-04T07:09:44.639Z,101948.75
2023-05-04T07:12:11.362Z,101946.72
2023-05-04T07:14:38.276Z,101954.78
2023-05-04T07:17:04.890Z,101953.09
2023-05-04T07:19:31.308Z,101955.00
2023-05-04T07:21:57.673Z,101947.53
2023-05-04T07:24:24.215Z,101944.84
2023-05-04T07:26:50.710Z,101940.50
2023-05-04T07:29:17.588Z,101951.06
2023-05-04T07:31:45.179Z,101946.28
2023-05-04T07:34:13.214Z,101953.56
2023-05-04T07:36:41.986Z,101948.19
2023-05-04T07:39:09.677Z,101948.97
2023-05-04T07:41:36.075Z,101945.25
2023-05-04T07:44:02.575Z,101949.81
2023-05-04T07:46:28.976Z,101947.13
2023-05-04T07:48:55.419Z,101942.56
2023-05-04T07:51:22.082Z,101946.28
2023-05-04T07:53:48.549Z,101934.50
2023-05-04T07:56:14.965Z,101929.09
2023-05-04T07:58:41.317Z,101918.56
2023-05-04T08:01:07.693Z,101928.09
2023-05-04T08:03:34.147Z,101923.72
2023-05-04T08:06:00.830Z,101925.59
2023-05-04T08:08:27.270Z,101926.41
2023-05-04T08:10:55.019Z,101928.31
2023-05-04T08:13:22.558Z,101916.69
2023-05-04T08:15:49.288Z,101915.03
2023-05-04T08:18:16.804Z,101915.66
2023-05-04T08:20:43.158Z,101910.50
2023-05-04T08:23:09.581Z,101911.50
2023-05-04T08:25:35.976Z,101910.69
2023-05-04T08:28:02.447Z,101921.25
2023-05-04T08:30:28.878Z,101910.69
2023-05-04T08:32:55.423Z,101911.75
2023-05-04T08:35:21.807Z,101899.09
2023-05-04T08:37:48.114Z,101903.66
2023-05-04T08:40:14.679Z,101901.19
2023-05-04T08:42:41.644Z,101896.41
2023-05-04T08:45:08.762Z,101893.91
2023-05-04T08:47:35.232Z,101898.50
2023-05-04T08:50:01.604Z,101889.38
2023-05-04T08:52:28.264Z,101885.84
2023-05-04T08:54:54.753Z,101889.38
2023-05-04T08:57:21.142Z,101878.81
2023-05-04T08:59:47.804Z,101884.59
2023-05-04T09:02:14.641Z,101886.47
2023-05-04T09:04:41.181Z,101885.03
2023-05-04T09:07:07.619Z,101888.34
2023-05-04T09:09:34.068Z,101884.59
2023-05-04T09:12:00.766Z,101878.41
2023-05-04T09:14:28.912Z,101877.56
2023-05-04T09:16:55.332Z,101872.84
2023-05-04T09:19:22.081Z,101873.84
2023-05-04T09:21:48.402Z,101872.84
2023-05-04T09:24:14.995Z,101877.56
2023-05-04T09:26:41.556Z,101871.78
2023-05-04T09:29:07.990Z,101870.75
2023-05-04T09:31:34.469Z,101877.59
2023-05-04T09:34:01.299Z,101867.22
2023-05-04T09:36:27.891Z,101868.47
2023-05-04T09:38:54.849Z,101859.38
2023-05-04T09:41:21.344Z,101853.56
2023-05-04T09:43:47.680Z,101849.88
2023-05-04T09:46:14.096Z,101842.81
2023-05-04T09:48:40.794Z,101849.88
2023-05-04T09:51:07.118Z,101845.28
2023-05-04T09:53:33.512Z,101850.88
2023-05-04T09:56:02.503Z,101852.97
2023-05-04T09:58:30.012Z,101848.19
2023-05-04T10:00:56.351Z,101842.81
2023-05-04T10:03:22.735Z,101840.13
2023-05-04T10:05:52.957Z,101832.47
2023-05-04T10:08:19.392Z,101837.22
2023-05-04T10:10:46.017Z,101829.56
2023-05-04T10:13:12.449Z,101817.78
2023-05-04T10:15:39.011Z,101811.75
2023-05-04T10:18:05.587Z,101816.94
2023-05-04T10:20:32.212Z,101817.97
2023-05-04T10:22:59.074Z,101815.28
2023-05-04T10:25:25.789Z,101811.16
2023-05-04T10:27:52.163Z,101806.38
2023-05-04T10:30:18.505Z,101801.84
2023-05-04T10:32:45.154Z,101805.56
2023-05-04T10:35:11.790Z,101805.56
2023-05-04T10:37:38.258Z,101800.19
2023-05-04T10:40:05.510Z,101791.28
2023-05-04T10:42:33.691Z,101787.97
2023-05-04T10:45:01.948Z,101790.44
2023-05-04T10:47:28.335Z,101791.47
2023-05-04T10:49:56.023Z,101786.09
2023-05-04T10:52:22.485Z,101785.06
2023-05-04T10:54:48.827Z,101776.16
2023-05-04T10:57:18.593Z,101771.59
2023-05-04T10:59:44.913Z,101766.44
2023-05-04T11:02:15.232Z,101769.94
2023-05-04T11:04:41.604Z,101768.09
2023-05-04T11:07:10.898Z,101774.28
2023-05-04T11:09:37.197Z,101764.56
2023-05-04T11:12:03.579Z,101760.84
2023-05-04T11:14:39.788Z,101755.44
2023-05-04T11:17:19.701Z,101751.97
2023-05-04T11:19:52.676Z,101738.50
2023-05-04T11:22:19.108Z,101731.47
2023-05-04T11:24:45.453Z,101734.97
2023-05-04T11:27:11.858Z,101726.09
2023-05-04T11:29:38.443Z,101726.09
2023-05-04T11:32:05.489Z,101726.09
2023-05-04T11:34:32.164Z,101720.72
2023-05-04T11:36:58.720Z,101719.88
2023-05-04T11:39:25.456Z,101711.81
2023-05-04T11:41:52.030Z,101714.50
2023-05-04T11:44:18.574Z,101701.03
2023-05-04T11:46:45.079Z,101698.34
2023-05-04T11:49:11.770Z,101694.00
2023-05-04T11:51:38.326Z,101704.56
2023-05-04T11:54:04.901Z,101697.50
2023-05-04T11:56:31.605Z,101703.72
2023-05-04T11:58:57.923Z,101697.50
2023-05-04T12:01:24.287Z,101694.00
2023-05-04T12:03:53.794Z,101696.69
2023-05-04T12:06:20.984Z,101692.97
2023-05-04T12:08:47.619Z,101692.13
2023-05-04T12:11:14.133Z,101696.69
2023-05-04T12:13:40.517Z,101695.84
2023-05-04T12:16:06.868Z,101694.00
2023-05-04T12:18:33.233Z,101699.38
2023-05-04T12:20:59.723Z,101694.81
2023-05-04T12:23:26.165Z,101691.31
2023-05-04T12:25:58.243Z,101690.47
2023-05-04T12:28:25.040Z,101685.94
2023-05-04T12:30:51.411Z,101686.75
2023-05-04T12:33:20.078Z,101680.56
2023-05-04T12:35:46.824Z,101672.69
2023-05-04T12:38:13.766Z,101669.78
2023-05-04T12:40:40.635Z,101667.31
2023-05-04T12:43:07.216Z,101666.47
2023-05-04T12:45:33.827Z,101665.44
2023-05-04T12:48:00.426Z,101660.28
2023-05-04T12:50:26.941Z,101660.28
2023-05-04T12:52:53.594Z,101656.75
2023-05-04T12:55:20.042Z,101661.28
2023-05-04T12:57:46.476Z,101647.03
2023-05-04T13:00:13.249Z,101640.59
2023-05-04T13:02:39.728Z,101636.28
2023-05-04T13:05:06.423Z,101637.06
2023-05-04T13:07:33.003Z,101653.44
2023-05-04T13:09:59.322Z,101632.75
2023-05-04T13:12:25.780Z,101636.28
2023-05-04T13:14:52.189Z,101639.16
2023-05-04T13:17:18.778Z,101640.97
2023-05-04T13:19:45.335Z,101637.28
2023-05-04T13:22:11.679Z,101628.41
2023-05-04T13:24:38.226Z,101625.72
2023-05-04T13:27:04.786Z,101622.16
2023-05-04T13:29:31.143Z,101619.47
2023-05-04T13:31:57.731Z,101623.03
2023-05-04T13:34:24.186Z,101617.81
2023-05-04T13:36:50.639Z,101609.56
2023-05-04T13:39:17.115Z,101621.34
2023-05-04T13:41:43.413Z,101610.59
2023-05-04T13:44:09.882Z,101610.78
2023-05-04T13:46:36.292Z,101599.81
2023-05-04T13:49:02.643Z,101599.81
2023-05-04T13:51:28.946Z,101597.13
2023-05-04T13:53:55.416Z,101597.13
2023-05-04T13:56:21.767Z,101597.13
2023-05-04T13:58:48.194Z,101596.28
2023-05-04T14:01:14.764Z,101591.97
2023-05-04T14:03:41.260Z,101590.91
2023-05-04T14:06:07.738Z,101593.59
2023-05-04T14:08:34.354Z,101588.06
2023-05-04T14:11:03.765Z,101589.88
2023-05-04T14:13:30.537Z,101583.69
2023-05-04T14:15:57.117Z,101576.41
2023-05-04T14:18:23.552Z,101573.13
2023-05-04T14:20:50.915Z,101569.41
2023-05-04T14:23:17.830Z,101564.00
2023-05-04T14:25:44.273Z,101561.16
2023-05-04T14:28:10.900Z,101557.59
2023-05-04T14:30:37.202Z,101557.78
2023-05-04T14:33:04.106Z,101553.25
2023-05-04T14:35:30.653Z,101546.84
2023-05-04T14:37:57.050Z,101546.03
2023-05-04T14:40:23.332Z,101542.50
2023-05-04T14:42:49.722Z,101536.06
2023-05-04T14:45:16.092Z,101530.69
2023-05-04T14:47:42.661Z,101533.38
2023-05-04T14:50:09.390Z,101528.88
2023-05-04T14:52:36.088Z,101530.69
2023-05-04T14:55:02.814Z,101526.19
2023-05-04T14:57:29.367Z,101529.69
2023-05-04T14:59:55.699Z,101522.63
2023-05-04T15:02:22.219Z,101531.56
2023-05-04T15:04:48.785Z,101525.13
2023-05-04T15:07:15.183Z,101523.50
2023-05-04T15:09:41.646Z,101527.81
2023-05-04T15:12:08.104Z,101518.13
2023-05-04T15:14:34.601Z,101513.53
2023-05-04T15:17:01.169Z,101515.41
2023-05-04T15:19:27.905Z,101511.88
2023-05-04T15:21:54.245Z,101524.09
2023-05-04T15:24:20.668Z,101511.69
2023-05-04T15:26:47.420Z,101505.25
2023-05-04T15:29:13.822Z,101507.16
2023-05-04T15:31:40.354Z,101500.94
2023-05-04T15:34:06.792Z,101497.19
2023-05-04T15:36:33.379Z,101498.03
2023-05-04T15:39:00.474Z,101496.19
2023-05-04T15:41:29.150Z,101487.66
2023-05-04T15:43:55.705Z,101483.16
2023-05-04T15:46:22.482Z,101482.47
2023-05-04T15:48:49.186Z,101479.78
2023-05-04T15:51:15.741Z,101475.03
2023-05-04T15:53:42.691Z,101474.00
2023-05-04T15:56:09.056Z,101474.63
2023-05-04T15:58:35.781Z,101473.16
2023-05-04T16:01:02.300Z,101477.50
2023-05-04T16:03:28.767Z,101474.34
2023-05-04T16:05:55.369Z,101468.56
2023-05-04T16:08:22.145Z,101473.72
2023-05-04T16:10:48.820Z,101471.03
2023-05-04T16:13:15.210Z,101466.28
2023-05-04T16:15:44.846Z,101463.59
2023-05-04T16:18:11.216Z,101465.22
2023-05-04T16:20:37.857Z,101458.59
2023-05-04T16:23:04.250Z,101460.25
2023-05-04T16:25:30.863Z,101457.13
2023-05-04T16:28:05.221Z,101458.56
2023-05-04T16:30:31.502Z,101460.00
2023-05-04T16:32:58.479Z,101452.75
2023-05-04T16:35:25.138Z,101445.47
2023-05-04T16:37:51.677Z,101450.06
2023-05-04T16:40:18.026Z,101448.19
2023-05-04T16:42:44.365Z,101449.00
2023-05-04T16:45:10.831Z,101447.13
2023-05-04T16:47:37.563Z,101449.00
2023-05-04T16:50:03.981Z,101442.78
2023-05-04T16:52:30.471Z,101438.25
2023-05-04T16:54:56.914Z,101436.59
2023-05-04T16:57:23.298Z,101434.13
2023-05-04T16:59:49.664Z,101444.69
2023-05-04T17:02:16.309Z,101445.69
2023-05-04T17:04:42.774Z,101437.88
2023-05-04T17:07:10.909Z,101433.28
2023-05-04T17:09:37.494Z,101430.00
2023-05-04T17:12:04.252Z,101434.34
2023-05-04T17:14:30.703Z,101431.66
2023-05-04T17:16:57.382Z,101432.69
2023-05-04T17:19:26.349Z,101430.00
2023-05-04T17:21:52.757Z,101434.53
2023-05-04T17:24:19.480Z,101438.06
2023-05-04T17:26:45.882Z,101434.75
2023-05-04T17:29:12.529Z,101438.28
2023-05-04T17:31:39.074Z,101436.41
2023-05-04T17:34:05.550Z,101435.59
2023-05-04T17:36:31.984Z,101435.59
2023-05-04T17:38:58.590Z,101432.06
2023-05-04T17:41:26.702Z,101427.72
2023-05-04T17:43:53.136Z,101423.41
2023-05-04T17:46:19.527Z,101427.94
2023-05-04T17:48:46.191Z,101439.34
2023-05-04T17:51:12.666Z,101428.78
2023-05-04T17:53:39.392Z,101427.09
2023-05-04T17:56:05.937Z,101427.94
2023-05-04T17:58:32.532Z,101423.41
2023-05-04T18:00:59.027Z,101426.91
2023-05-04T18:03:25.501Z,101425.25
2023-05-04T18:05:52.481Z,101436.03
2023-05-04T18:08:19.069Z,101431.47
2023-05-04T18:10:45.480Z,101427.94
2023-05-04T18:13:12.017Z,101439.53
2023-05-04T18:15:39.426Z,101435.81
2023-05-04T18:18:05.990Z,101441.19
2023-05-04T18:20:32.439Z,101447.63
2023-05-04T18:22:58.951Z,101451.31
2023-05-04T18:25:25.275Z,101453.00
2023-05-04T18:27:51.681Z,101447.63
2023-05-04T18:30:18.084Z,101450.31
2023-05-04T18:32:44.652Z,101453.00
2023-05-04T18:35:11.131Z,101456.50
2023-05-04T18:37:37.607Z,101456.50
2023-05-04T18:40:04.123Z,101455.69
2023-05-04T18:42:30.750Z,101449.47
2023-05-04T18:44:57.528Z,101461.88
2023-05-04T18:47:24.173Z,101462.72
2023-05-04T18:49:50.640Z,101459.41
2023-05-04T18:52:17.448Z,101467.25
2023-05-04T18:54:43.773Z,101463.56
2023-05-04T18:57:10.120Z,101471.63
2023-05-04T18:59:37.042Z,101477.00
2023-05-04T19:02:03.360Z,101476.19
2023-05-04T19:04:29.653Z,101471.63
2023-05-04T19:06:56.129Z,101471.63
2023-05-04T19:09:22.549Z,101484.25
2023-05-04T19:11:53.272Z,101477.00
2023-05-04T19:14:19.689Z,101474.31
2023-05-04T19:16:46.183Z,101471.63
2023-05-04T19:19:12.858Z,101465.41
2023-05-04T19:21:39.754Z,101475.13
2023-05-04T19:24:06.187Z,101472.44
2023-05-04T19:26:32.648Z,101478.03
2023-05-04T19:28:59.123Z,101485.09
2023-05-04T19:31:25.704Z,101489.63
2023-05-04T19:33:52.395Z,101490.69
2023-05-04T19:36:19.382Z,101488.78
2023-05-04T19:38:45.923Z,101487.16
2023-05-04T19:41:12.384Z,101484.47
2023-05-04T19:43:38.722Z,101479.06
2023-05-04T19:46:05.070Z,101481.97
2023-05-04T19:48:31.497Z,101469.34
2023-05-04T19:50:59.509Z,101460.44
2023-05-04T19:53:26.687Z,101474.75
2023-05-04T19:55:53.042Z,101467.47
2023-05-04T19:58:19.464Z,101464.78
2023-05-04T20:00:46.038Z,101462.09
2023-05-04T20:03:12.435Z,101463.97
2023-05-04T20:05:39.175Z,101469.34
2023-05-04T20:08:07.221Z,101467.72
2023-05-04T20:10:33.733Z,101472.06
2023-05-04T20:13:04.965Z,101468.53
2023-05-04T20:15:31.475Z,101463.13
2023-05-04T20:17:58.220Z,101472.06
2023-05-04T20:20:24.737Z,101471.22
2023-05-04T20:22:51.375Z,101468.53
2023-05-04T20:25:17.806Z,101467.94
2023-05-04T20:27:44.234Z,101473.09
2023-05-04T20:30:10.915Z,101464.19
2023-05-04T20:32:37.318Z,101469.56
2023-05-04T20:35:03.823Z,101462.34
2023-05-04T20:37:30.260Z,101463.34
2023-05-04T20:39:56.773Z,101466.88
2023-05-04T20:42:23.251Z,101467.72
2023-05-04T20:44:49.608Z,101460.66
2023-05-04T20:47:16.457Z,101449.91
2023-05-04T20:49:42.914Z,101461.50
2023-05-04T20:52:09.180Z,101457.97
2023-05-04T20:54:35.848Z,101456.31
2023-05-04T20:57:06.000Z,101457.16
2023-05-04T20:59:32.449Z,101451.16
2023-05-04T21:02:00.719Z,101453.63
2023-05-04T21:04:27.570Z,101452.81
2023-05-04T21:06:53.948Z,101466.28
2023-05-04T21:09:20.324Z,101458.22
2023-05-04T21:11:46.772Z,101461.72
2023-05-04T21:14:14.542Z,101468.13
2023-05-04T21:16:41.322Z,101456.53
2023-05-04T21:19:07.795Z,101460.91
2023-05-04T21:21:34.105Z,101462.75
2023-05-04T21:24:00.507Z,101463.59
2023-05-04T21:26:27.381Z,101461.09
2023-05-04T21:28:54.258Z,101457.38
2023-05-04T21:31:20.669Z,101460.06
2023-05-04T21:33:47.228Z,101460.28
2023-05-04T21:36:13.862Z,101455.72
2023-05-04T21:38:40.515Z,101455.72
2023-05-04T21:41:06.945Z,101448.66
2023-05-04T21:43:33.292Z,101449.50
2023-05-04T21:45:59.656Z,101452.19
2023-05-04T21:48:26.317Z,101450.34
2023-05-04T21:50:52.744Z,101450.34
2023-05-04T21:53:19.640Z,101444.13
2023-05-04T21:55:45.986Z,101441.44
2023-05-04T21:58:12.411Z,101444.13
2023-05-04T22:00:38.811Z,101444.13
2023-05-04T22:03:05.716Z,101437.91
2023-05-04T22:05:32.280Z,101440.84
2023-05-04T22:07:58.596Z,101431.72
2023-05-04T22:10:25.622Z,101426.34
2023-05-04T22:12:51.991Z,101426.53
2023-05-04T22:15:18.884Z,101429.25
2023-05-04T22:17:45.422Z,101422.22
2023-05-04T22:20:11.827Z,101423.84
2023-05-04T22:22:38.580Z,101423.84
2023-05-04T22:25:09.051Z,101421.16
2023-05-04T22:27:36.020Z,101426.75
2023-05-04T22:30:02.377Z,101416.00
2023-05-04T22:32:29.211Z,101418.69
2023-05-04T22:34:55.711Z,101419.53
2023-05-04T22:37:22.060Z,101415.41
2023-05-04T22:39:48.371Z,101424.06
2023-05-04T22:42:14.989Z,101424.91
2023-05-04T22:44:41.890Z,101416.84
2023-05-04T22:47:08.264Z,101429.88
2023-05-04T22:49:34.752Z,101418.91
2023-05-04T22:52:01.438Z,101427.59
2023-05-04T22:54:28.255Z,101427.59
2023-05-04T22:56:54.682Z,101421.81
2023-05-04T22:59:21.131Z,101429.66
2023-05-04T23:01:47.521Z,101430.28
2023-05-04T23:04:14.173Z,101424.28
2023-05-04T23:06:40.565Z,101427.19
2023-05-04T23:09:08.104Z,101428.84
2023-05-04T23:11:34.673Z,101434.25
2023-05-04T23:14:01.411Z,101428.03
2023-05-04T23:16:27.951Z,101429.06
2023-05-04T23:18:54.322Z,101422.63
2023-05-04T23:21:20.985Z,101429.66
2023-05-04T23:23:47.328Z,101431.75
2023-05-04T23:26:15.338Z,101428.03
2023-05-04T23:28:41.716Z,101421.00
2023-05-04T23:31:08.172Z,101423.69
2023-05-04T23:33:34.669Z,101421.00
2023-05-04T23:36:01.034Z,101423.91
2023-05-04T23:38:27.566Z,101418.31
2023-05-04T23:40:53.918Z,101422.63
2023-05-04T23:43:20.458Z,101424.72
2023-05-04T23:45:47.099Z,101412.09
2023-05-04T23:48:13.452Z,101412.09
2023-05-04T23:50:39.899Z,101409.41
2023-05-04T23:53:10.312Z,101410.22
2023-05-04T23:55:36.589Z,101410.22
2023-05-04T23:58:03.075Z,101406.69
